createdAt,value
2024-03-12T00:00:46.796Z,46.75
2024-03-12T00:03:13.402Z,40.55
2024-03-12T00:05:41.879Z,44.85
2024-03-12T00:08:08.901Z,41.63
2024-03-12T00:10:35.554Z,38.92
2024-03-12T00:13:03.192Z,47.42
2024-03-12T00:15:30.214Z,49.70
2024-03-12T00:17:56.966Z,43.80
2024-03-12T00:20:36.482Z,51.70
2024-03-12T00:23:03.403Z,45.53
2024-03-12T00:25:31.740Z,45.13
2024-03-12T00:27:58.479Z,44.33
2024-03-12T00:30:31.958Z,44.15
2024-03-12T00:32:59.312Z,42.17
2024-03-12T00:35:29.274Z,41.40
2024-03-12T00:37:58.105Z,44.03
2024-03-12T00:40:34.182Z,44.20
2024-03-12T00:43:01.540Z,43.85
2024-03-12T00:45:30.848Z,42.38
2024-03-12T00:47:58.530Z,47.05
2024-03-12T00:50:25.205Z,45.50
2024-03-12T00:52:54.345Z,51.65
2024-03-12T00:55:22.121Z,50.97
2024-03-12T00:57:53.866Z,44.47
2024-03-12T01:00:26.911Z,46.88
2024-03-12T01:02:55.404Z,50.80
2024-03-12T01:05:26.659Z,51.53
2024-03-12T01:08:00.034Z,36.28
2024-03-12T01:10:31.591Z,46.63
2024-03-12T01:13:00.160Z,51.50
2024-03-12T01:15:27.767Z,44.67
2024-03-12T01:17:55.271Z,49.90
2024-03-12T01:20:23.092Z,49.70
2024-03-12T01:22:51.700Z,47.58
2024-03-12T01:25:19.166Z,45.20
2024-03-12T01:27:45.707Z,58.13
2024-03-12T01:30:15.645Z,53.05
2024-03-12T01:32:42.687Z,41.58
2024-03-12T01:35:09.592Z,44.30
2024-03-12T01:37:44.189Z,43.35
2024-03-12T01:40:22.706Z,48.17
2024-03-12T01:42:55.303Z,50.58
2024-03-12T01:45:23.975Z,54.88
2024-03-12T01:47:56.045Z,51.30
2024-03-12T01:50:25.788Z,46.65
2024-03-12T01:52:59.425Z,48.58
2024-03-12T01:55:26.197Z,41.53
2024-03-12T01:57:55.779Z,45.47
2024-03-12T02:00:22.905Z,50.33
2024-03-12T02:02:53.489Z,47.60
2024-03-12T02:05:20.928Z,44.33
2024-03-12T02:07:50.952Z,58.80
2024-03-12T02:10:20.101Z,46.80
2024-03-12T02:12:47.470Z,49.22
2024-03-12T02:15:18.902Z,50.45
2024-03-12T02:17:46.107Z,49.92
2024-03-12T02:20:14.009Z,46.67
2024-03-12T02:22:41.401Z,49.80
2024-03-12T02:25:11.304Z,52.90
2024-03-12T02:27:38.938Z,49.60
2024-03-12T02:30:06.244Z,42.08
2024-03-12T02:32:33.765Z,49.70
2024-03-12T02:35:00.557Z,49.85
2024-03-12T02:37:27.086Z,50.92
2024-03-12T02:39:53.608Z,41.17
2024-03-12T02:42:20.218Z,42.65
2024-03-12T02:44:47.029Z,45.63
2024-03-12T02:47:14.084Z,70.22
2024-03-12T02:49:40.862Z,54.47
2024-03-12T02:52:07.999Z,55.45
2024-03-12T02:54:34.562Z,45.42
2024-03-12T02:57:01.151Z,49.65
2024-03-12T02:59:28.534Z,46.65
2024-03-12T03:01:58.540Z,44.30
2024-03-12T03:04:25.134Z,65.40
2024-03-12T03:06:52.568Z,46.75
2024-03-12T03:09:19.753Z,47.33
2024-03-12T03:11:46.467Z,65.88
2024-03-12T03:14:13.026Z,52.17
2024-03-12T03:16:39.509Z,40.20
2024-03-12T03:19:06.561Z,41.53
2024-03-12T03:21:33.158Z,51.13
2024-03-12T03:23:59.823Z,48.67
2024-03-12T03:26:26.378Z,48.85
2024-03-12T03:28:52.883Z,40.35
2024-03-12T03:31:19.478Z,44.97
2024-03-12T03:33:48.640Z,52.10
2024-03-12T03:36:15.423Z,43.35
2024-03-12T03:38:42.134Z,51.25
2024-03-12T03:41:10.494Z,47.50
2024-03-12T03:43:38.682Z,43.90
2024-03-12T03:46:06.241Z,49.03
2024-03-12T03:48:32.820Z,52.30
2024-03-12T03:50:59.338Z,43.63
2024-03-12T03:53:26.103Z,64.78
2024-03-12T03:55:55.437Z,48.88
2024-03-12T03:58:24.739Z,55.50
2024-03-12T04:00:54.204Z,53.35
2024-03-12T04:03:21.804Z,44.45
2024-03-12T04:05:48.536Z,47.08
2024-03-12T04:08:17.305Z,52.70
2024-03-12T04:10:43.948Z,55.63
2024-03-12T04:13:10.826Z,48.78
2024-03-12T04:15:37.547Z,47.22
2024-03-12T04:18:04.234Z,48.55
2024-03-12T04:20:30.807Z,41.30
2024-03-12T04:22:57.426Z,55.80
2024-03-12T04:25:24.021Z,49.75
2024-03-12T04:27:52.006Z,57.72
2024-03-12T04:30:19.739Z,43.05
2024-03-12T04:32:48.670Z,53.47
2024-03-12T04:35:15.287Z,42.03
2024-03-12T04:37:42.132Z,52.75
2024-03-12T04:40:09.409Z,46.40
2024-03-12T04:42:37.796Z,45.92
2024-03-12T04:45:08.802Z,54.75
2024-03-12T04:47:38.385Z,71.45
2024-03-12T04:50:05.479Z,96.18
2024-03-12T04:52:34.805Z,74.38
2024-03-12T04:55:01.751Z,98.50
2024-03-12T04:57:28.436Z,46.85
2024-03-12T04:59:55.742Z,53.42
2024-03-12T05:02:22.232Z,82.05
2024-03-12T05:04:48.712Z,104.82
2024-03-12T05:07:15.265Z,86.47
2024-03-12T05:09:41.827Z,112.75
2024-03-12T05:12:08.482Z,57.80
2024-03-12T05:14:35.072Z,44.80
2024-03-12T05:17:01.600Z,83.90
2024-03-12T05:19:28.129Z,62.70
2024-03-12T05:21:54.731Z,47.92
2024-03-12T05:24:21.303Z,91.63
2024-03-12T05:26:50.508Z,82.05
2024-03-12T05:29:18.759Z,75.20
2024-03-12T05:31:45.464Z,60.50
2024-03-12T05:34:20.113Z,77.22
2024-03-12T05:36:49.916Z,92.72
2024-03-12T05:39:20.590Z,74.35
2024-03-12T05:44:35.504Z,75.00
2024-03-12T05:47:20.421Z,59.67
2024-03-12T05:49:46.895Z,72.65
2024-03-12T05:52:13.510Z,81.80
2024-03-12T05:54:41.624Z,60.95
2024-03-12T05:57:08.203Z,46.97
2024-03-12T05:59:34.676Z,55.83
2024-03-12T06:02:01.895Z,62.65
2024-03-12T06:04:33.156Z,54.30
2024-03-12T06:07:02.953Z,76.30
2024-03-12T06:09:29.897Z,88.10
2024-03-12T06:11:56.406Z,66.43
2024-03-12T06:14:26.304Z,92.53
2024-03-12T06:16:52.987Z,69.00
2024-03-12T06:19:20.541Z,45.45
2024-03-12T06:21:47.524Z,93.80
2024-03-12T06:24:14.133Z,40.92
2024-03-12T06:26:41.283Z,46.40
2024-03-12T06:29:08.241Z,49.50
2024-03-12T06:31:35.967Z,64.32
2024-03-12T06:34:03.293Z,42.47
2024-03-12T06:36:29.834Z,34.30
2024-03-12T06:38:56.328Z,52.85
2024-03-12T06:41:25.514Z,43.28
2024-03-12T06:43:52.145Z,33.35
2024-03-12T06:46:20.917Z,41.47
2024-03-12T06:48:48.491Z,28.85
2024-03-12T06:51:16.729Z,31.13
2024-03-12T06:53:44.449Z,29.27
2024-03-12T06:56:12.657Z,34.08
2024-03-12T06:58:45.989Z,32.03
2024-03-12T07:01:14.771Z,30.75
2024-03-12T07:03:43.830Z,36.47
2024-03-12T07:06:10.418Z,38.63
2024-03-12T07:08:40.127Z,34.15
2024-03-12T07:11:08.625Z,47.07
2024-03-12T07:13:35.550Z,37.03
2024-03-12T07:16:04.204Z,33.92
2024-03-12T07:18:30.748Z,29.52
2024-03-12T07:20:57.379Z,27.45
2024-03-12T07:23:23.914Z,34.25
2024-03-12T07:25:50.986Z,32.72
2024-03-12T07:28:20.735Z,30.10
2024-03-12T07:30:51.246Z,29.58
2024-03-12T07:33:18.037Z,27.73
2024-03-12T07:35:44.697Z,31.40
2024-03-12T07:38:11.191Z,30.70
2024-03-12T07:40:39.309Z,28.17
2024-03-12T07:43:07.095Z,32.28
2024-03-12T07:45:33.770Z,31.70
2024-03-12T07:48:00.428Z,28.10
2024-03-12T07:50:31.862Z,30.02
2024-03-12T07:52:58.421Z,28.20
2024-03-12T07:55:26.424Z,25.83
2024-03-12T07:57:53.006Z,30.30
2024-03-12T08:00:20.388Z,28.33
2024-03-12T08:02:47.065Z,29.75
2024-03-12T08:05:14.056Z,25.63
2024-03-12T08:07:41.015Z,34.30
2024-03-12T08:10:10.558Z,30.10
2024-03-12T08:12:40.412Z,28.48
2024-03-12T08:15:08.282Z,28.55
2024-03-12T08:17:34.930Z,27.88
2024-03-12T08:20:01.471Z,26.02
2024-03-12T08:22:28.281Z,29.60
2024-03-12T08:24:56.058Z,30.15
2024-03-12T08:27:22.640Z,25.25
2024-03-12T08:29:49.229Z,30.85
2024-03-12T08:32:15.804Z,25.70
2024-03-12T08:34:43.066Z,25.25
2024-03-12T08:37:12.695Z,26.23
2024-03-12T08:39:39.489Z,26.38
2024-03-12T08:42:08.711Z,25.83
2024-03-12T08:44:35.296Z,25.98
2024-03-12T08:47:01.760Z,28.80
2024-03-12T08:49:28.250Z,28.40
2024-03-12T08:51:54.781Z,24.55
2024-03-12T08:54:21.314Z,27.92
2024-03-12T08:56:47.833Z,27.65
2024-03-12T08:59:15.081Z,26.85
2024-03-12T09:01:41.953Z,29.48
2024-03-12T09:04:09.295Z,29.08
2024-03-12T09:06:36.270Z,32.38
2024-03-12T09:09:02.822Z,30.33
2024-03-12T09:11:29.431Z,26.90
2024-03-12T09:13:55.970Z,27.52
2024-03-12T09:16:22.950Z,32.88
2024-03-12T09:18:49.664Z,26.95
2024-03-12T09:21:16.507Z,27.15
2024-03-12T09:23:53.477Z,29.85
2024-03-12T09:26:28.835Z,26.13
2024-03-12T09:28:55.392Z,30.55
2024-03-12T09:31:21.984Z,26.05
2024-03-12T09:33:49.101Z,26.17
2024-03-12T09:36:15.918Z,25.60
2024-03-12T09:38:45.052Z,27.73
2024-03-12T09:41:14.304Z,24.52
2024-03-12T09:43:45.043Z,25.55
2024-03-12T09:46:17.514Z,23.67
2024-03-12T09:48:46.128Z,26.25
2024-03-12T09:51:13.273Z,24.45
2024-03-12T09:53:42.301Z,21.92
2024-03-12T09:56:09.497Z,23.10
2024-03-12T09:58:36.040Z,21.42
2024-03-12T10:01:07.394Z,24.70
2024-03-12T10:03:37.177Z,24.35
2024-03-12T10:06:04.146Z,24.02
2024-03-12T10:08:30.889Z,26.45
2024-03-12T10:10:58.026Z,23.08
2024-03-12T10:13:25.121Z,23.90
2024-03-12T10:16:00.826Z,23.67
2024-03-12T10:18:30.803Z,23.02
2024-03-12T10:21:02.748Z,20.80
2024-03-12T10:23:35.727Z,20.25
2024-03-12T10:26:19.332Z,20.35
2024-03-12T10:28:47.024Z,20.67
2024-03-12T10:31:14.648Z,22.40
2024-03-12T10:33:45.788Z,20.02
2024-03-12T10:36:12.952Z,20.25
2024-03-12T10:38:41.187Z,20.00
2024-03-12T10:41:20.659Z,22.45
2024-03-12T10:43:51.118Z,19.20
2024-03-12T10:46:20.566Z,21.98
2024-03-12T10:48:48.891Z,21.67
2024-03-12T10:51:16.892Z,33.17
2024-03-12T10:53:47.589Z,37.03
2024-03-12T10:58:47.872Z,42.38
2024-03-12T11:01:16.173Z,39.63
2024-03-12T11:03:44.088Z,29.95
2024-03-12T11:06:13.836Z,25.15
2024-03-12T11:08:40.705Z,26.83
2024-03-12T11:11:10.171Z,25.17
2024-03-12T11:13:37.084Z,27.17
2024-03-12T11:16:11.450Z,29.40
2024-03-12T11:18:40.032Z,27.55
2024-03-12T11:21:11.401Z,28.70
2024-03-12T11:23:37.996Z,32.17
2024-03-12T11:26:05.832Z,36.97
2024-03-12T11:28:33.457Z,28.23
2024-03-12T11:31:03.204Z,33.05
2024-03-12T11:33:38.818Z,31.80
2024-03-12T11:36:12.047Z,30.27
2024-03-12T11:38:38.747Z,34.85
2024-03-12T11:41:05.288Z,35.20
2024-03-12T11:43:39.323Z,34.30
2024-03-12T11:46:08.318Z,38.33
2024-03-12T11:48:42.564Z,42.22
2024-03-12T11:51:13.308Z,38.05
2024-03-12T11:53:42.578Z,40.08
2024-03-12T11:56:17.786Z,40.58
2024-03-12T11:58:49.525Z,38.00
2024-03-12T12:01:20.458Z,34.33
2024-03-12T12:03:51.410Z,37.05
2024-03-12T12:06:20.647Z,41.75
2024-03-12T12:08:57.237Z,39.97
2024-03-12T12:11:27.632Z,35.55
2024-03-12T12:14:00.540Z,39.42
2024-03-12T12:16:29.389Z,41.22
2024-03-12T12:19:06.531Z,36.97
2024-03-12T12:21:34.541Z,43.90
2024-03-12T12:24:03.695Z,40.83
2024-03-12T12:26:37.381Z,41.63
2024-03-12T12:29:05.305Z,38.17
2024-03-12T12:31:36.935Z,39.88
2024-03-12T12:34:06.565Z,38.00
2024-03-12T12:36:37.074Z,40.00
2024-03-12T12:39:05.313Z,40.25
2024-03-12T12:41:58.713Z,36.95
2024-03-12T12:44:28.352Z,40.50
2024-03-12T12:46:56.045Z,43.60
2024-03-12T12:49:23.760Z,40.03
2024-03-12T12:51:51.327Z,38.55
2024-03-12T12:54:22.730Z,41.35
2024-03-12T12:56:50.940Z,43.20
2024-03-12T12:59:21.086Z,45.88
2024-03-12T13:01:49.536Z,42.65
2024-03-12T13:04:24.348Z,46.35
2024-03-12T13:06:53.217Z,43.03
2024-03-12T13:09:30.258Z,42.03
2024-03-12T13:11:58.270Z,44.38
2024-03-12T13:14:26.724Z,44.63
2024-03-12T13:16:54.078Z,39.97
2024-03-12T13:19:21.137Z,47.45
2024-03-12T13:21:49.329Z,43.60
2024-03-12T13:24:15.913Z,37.85
2024-03-12T13:26:42.955Z,44.53
2024-03-12T13:29:09.471Z,45.40
2024-03-12T13:31:36.340Z,43.13
2024-03-12T13:34:02.854Z,45.33
2024-03-12T13:36:29.502Z,42.40
2024-03-12T13:38:56.873Z,41.40
2024-03-12T13:41:26.573Z,42.63
2024-03-12T13:43:53.549Z,42.92
2024-03-12T13:46:20.750Z,44.65
2024-03-12T13:48:47.963Z,42.83
2024-03-12T13:51:14.696Z,44.85
2024-03-12T13:53:41.710Z,42.88
2024-03-12T13:56:11.227Z,46.00
2024-03-12T13:58:40.097Z,40.42
2024-03-12T14:01:12.509Z,41.60
2024-03-12T14:03:41.251Z,41.58
2024-03-12T14:06:10.284Z,41.83
2024-03-12T14:08:37.805Z,46.38
2024-03-12T14:11:04.798Z,37.92
2024-03-12T14:13:32.835Z,38.95
2024-03-12T14:16:00.085Z,41.03
2024-03-12T14:18:27.624Z,42.05
2024-03-12T14:20:55.985Z,43.20
2024-03-12T14:23:22.922Z,40.90
2024-03-12T14:25:51.977Z,42.72
2024-03-12T14:28:18.544Z,43.17
2024-03-12T14:30:45.944Z,46.65
2024-03-12T14:33:13.234Z,47.58
2024-03-12T14:35:40.157Z,46.22
2024-03-12T14:38:06.940Z,49.00
2024-03-12T14:40:33.535Z,50.40
2024-03-12T14:43:01.620Z,49.90
2024-03-12T14:45:28.793Z,53.95
2024-03-12T14:47:57.540Z,48.60
2024-03-12T14:50:24.188Z,50.97
2024-03-12T14:52:51.113Z,50.10
2024-03-12T14:55:17.639Z,46.78
2024-03-12T14:57:44.187Z,44.35
2024-03-12T15:00:11.658Z,50.83
2024-03-12T15:02:38.482Z,45.70
2024-03-12T15:05:12.102Z,45.50
2024-03-12T15:07:44.639Z,49.10
2024-03-12T15:10:11.871Z,52.08
2024-03-12T15:12:40.842Z,41.33
2024-03-12T15:15:12.133Z,43.35
2024-03-12T15:17:42.759Z,45.20
2024-03-12T15:20:17.057Z,42.33
2024-03-12T15:22:46.347Z,44.80
2024-03-12T15:25:13.510Z,44.05
2024-03-12T15:27:41.612Z,44.72
2024-03-12T15:30:08.617Z,42.92
2024-03-12T15:32:38.940Z,47.80
2024-03-12T15:35:06.797Z,44.97
2024-03-12T15:37:33.506Z,45.85
2024-03-12T15:40:06.569Z,45.25
2024-03-12T15:42:35.038Z,42.55
2024-03-12T15:45:05.863Z,44.85
2024-03-12T15:47:35.650Z,48.90
2024-03-12T15:50:02.565Z,49.28
2024-03-12T15:52:29.200Z,43.33
2024-03-12T15:54:56.149Z,39.88
2024-03-12T15:57:24.248Z,40.22
2024-03-12T15:59:51.063Z,37.67
2024-03-12T16:02:19.043Z,33.83
2024-03-12T16:04:45.819Z,41.35
2024-03-12T16:07:13.062Z,39.85
2024-03-12T16:09:39.747Z,42.05
2024-03-12T16:12:06.663Z,40.80
2024-03-12T16:14:33.685Z,43.13
2024-03-12T16:17:00.296Z,38.97
2024-03-12T16:19:31.045Z,39.78
2024-03-12T16:21:58.473Z,46.20
2024-03-12T16:24:28.633Z,43.22
2024-03-12T16:26:57.238Z,39.03
2024-03-12T16:29:24.976Z,39.42
2024-03-12T16:31:51.966Z,43.03
2024-03-12T16:34:18.874Z,43.20
2024-03-12T16:36:45.849Z,43.42
2024-03-12T16:39:14.219Z,42.47
2024-03-12T16:41:41.449Z,45.05
2024-03-12T16:44:07.958Z,42.05
2024-03-12T16:46:35.111Z,47.85
2024-03-12T16:49:01.924Z,47.25
2024-03-12T16:51:29.035Z,42.40
2024-03-12T16:53:55.807Z,42.10
2024-03-12T16:58:52.219Z,45.72
2024-03-12T17:01:21.112Z,38.05
2024-03-12T17:03:48.433Z,42.83
2024-03-12T17:06:17.261Z,42.03
2024-03-12T17:08:44.262Z,45.95
2024-03-12T17:11:11.173Z,43.90
2024-03-12T17:13:39.097Z,35.08
2024-03-12T17:16:08.165Z,41.20
2024-03-12T17:18:35.728Z,37.40
2024-03-12T17:21:03.770Z,40.08
2024-03-12T17:23:31.245Z,39.25
2024-03-12T17:25:58.457Z,42.92
2024-03-12T17:28:25.539Z,39.00
2024-03-12T17:30:52.579Z,39.13
2024-03-12T17:33:19.508Z,40.58
2024-03-12T17:35:48.500Z,40.53
2024-03-12T17:38:21.827Z,36.63
2024-03-12T17:40:53.933Z,37.58
2024-03-12T17:43:21.804Z,44.95
2024-03-12T17:45:48.672Z,38.72
2024-03-12T17:48:20.114Z,44.33
2024-03-12T17:50:46.904Z,42.38
2024-03-12T17:53:13.776Z,41.35
2024-03-12T17:55:43.858Z,38.05
2024-03-12T17:58:12.761Z,44.38
2024-03-12T18:00:39.582Z,43.08
2024-03-12T18:03:06.527Z,42.22
2024-03-12T18:05:33.176Z,39.67
2024-03-12T18:08:00.260Z,43.35
2024-03-12T18:10:28.150Z,37.20
2024-03-12T18:12:55.480Z,42.40
2024-03-12T18:15:24.285Z,43.65
2024-03-12T18:17:51.076Z,46.25
2024-03-12T18:20:29.010Z,43.45
2024-03-12T18:22:55.530Z,44.75
2024-03-12T18:25:22.566Z,36.75
2024-03-12T18:27:54.748Z,46.78
2024-03-12T18:30:21.565Z,43.38
2024-03-12T18:32:49.838Z,40.72
2024-03-12T18:35:18.322Z,45.42
2024-03-12T18:37:45.978Z,44.35
2024-03-12T18:40:14.346Z,42.78
2024-03-12T18:42:45.552Z,44.10
2024-03-12T18:45:18.966Z,54.78
2024-03-12T18:47:48.343Z,51.67
2024-03-12T18:50:15.709Z,52.10
2024-03-12T18:52:43.616Z,47.30
2024-03-12T18:55:11.292Z,56.45
2024-03-12T18:57:41.870Z,48.22
2024-03-12T19:00:18.953Z,44.03
2024-03-12T19:02:49.593Z,49.50
2024-03-12T19:05:21.330Z,50.70
2024-03-12T19:07:52.892Z,50.08
2024-03-12T19:10:20.792Z,47.97
2024-03-12T19:12:47.985Z,44.05
2024-03-12T19:15:16.617Z,47.45
2024-03-12T19:17:45.418Z,47.10
2024-03-12T19:20:16.958Z,45.25
2024-03-12T19:22:45.073Z,48.45
2024-03-12T19:25:13.532Z,44.78
2024-03-12T19:27:42.686Z,49.72
2024-03-12T19:30:09.560Z,47.80
2024-03-12T19:32:39.181Z,45.33
2024-03-12T19:35:07.958Z,50.20
2024-03-12T19:37:38.495Z,45.05
2024-03-12T19:42:46.034Z,44.35
2024-03-12T19:45:13.202Z,46.65
2024-03-12T19:47:45.173Z,41.58
2024-03-12T19:50:21.092Z,43.97
2024-03-12T19:52:48.751Z,37.92
2024-03-12T19:55:19.797Z,39.33
2024-03-12T19:57:48.491Z,49.55
2024-03-12T20:00:19.748Z,41.63
2024-03-12T20:02:50.108Z,42.38
2024-03-12T20:05:20.475Z,43.20
2024-03-12T20:10:14.726Z,39.15
2024-03-12T20:12:41.456Z,42.22
2024-03-12T20:15:12.806Z,42.10
2024-03-12T20:17:42.740Z,37.28
2024-03-12T20:20:14.329Z,43.50
2024-03-12T20:22:42.179Z,38.88
2024-03-12T20:25:12.839Z,43.85
2024-03-12T20:27:39.665Z,43.05
2024-03-12T20:30:06.823Z,41.60
2024-03-12T20:32:33.606Z,36.95
2024-03-12T20:35:00.687Z,44.75
2024-03-12T20:37:27.438Z,52.67
2024-03-12T20:39:54.219Z,35.42
2024-03-12T20:42:23.131Z,38.20
2024-03-12T20:44:50.812Z,32.25
2024-03-12T20:47:19.269Z,38.58
2024-03-12T20:49:46.236Z,34.78
2024-03-12T20:52:14.416Z,34.97
2024-03-12T20:54:43.791Z,40.40
2024-03-12T20:57:12.263Z,37.90
2024-03-12T20:59:42.413Z,41.65
2024-03-12T21:02:13.404Z,39.97
2024-03-12T21:04:42.854Z,40.85
2024-03-12T21:07:12.620Z,44.20
2024-03-12T21:09:39.766Z,43.35
2024-03-12T21:12:06.556Z,44.35
2024-03-12T21:14:33.122Z,42.63
2024-03-12T21:17:03.733Z,41.75
2024-03-12T21:19:30.599Z,41.88
2024-03-12T21:21:57.334Z,42.78
2024-03-12T21:24:24.985Z,41.70
2024-03-12T21:26:51.849Z,48.08
2024-03-12T21:29:19.867Z,50.83
2024-03-12T21:31:46.808Z,54.83
2024-03-12T21:34:13.492Z,52.45
2024-03-12T21:36:43.217Z,50.63
2024-03-12T21:39:10.005Z,52.33
2024-03-12T21:41:36.937Z,52.83
2024-03-12T21:44:03.437Z,53.92
2024-03-12T21:46:29.894Z,54.33
2024-03-12T21:48:56.589Z,58.28
2024-03-12T21:51:27.829Z,52.95
2024-03-12T21:53:57.996Z,62.67
2024-03-12T21:56:27.474Z,59.08
2024-03-12T21:58:54.319Z,57.08
2024-03-12T22:01:22.092Z,57.30
2024-03-12T22:03:51.354Z,53.72
2024-03-12T22:06:18.226Z,57.13
2024-03-12T22:08:47.467Z,57.47
2024-03-12T22:11:15.043Z,58.00
2024-03-12T22:13:45.447Z,62.83
2024-03-12T22:16:15.986Z,53.47
2024-03-12T22:18:43.731Z,57.50
2024-03-12T22:21:11.283Z,64.97
2024-03-12T22:23:41.477Z,63.17
2024-03-12T22:26:08.965Z,59.63
2024-03-12T22:28:36.101Z,61.85
2024-03-12T22:31:04.228Z,60.75
2024-03-12T22:33:30.828Z,64.18
2024-03-12T22:35:58.152Z,67.10
2024-03-12T22:38:28.423Z,66.15
2024-03-12T22:40:55.321Z,66.68
2024-03-12T22:43:27.399Z,65.60
2024-03-12T22:45:55.204Z,63.40
2024-03-12T22:48:22.410Z,62.97
2024-03-12T22:50:49.149Z,65.45
2024-03-12T22:53:20.144Z,65.93
2024-03-12T22:55:46.997Z,63.53
2024-03-12T22:58:13.771Z,67.53
2024-03-12T23:00:42.060Z,63.70
2024-03-12T23:03:13.796Z,64.80
2024-03-12T23:05:43.419Z,61.88
2024-03-12T23:08:15.336Z,58.80
2024-03-12T23:10:45.058Z,56.17
2024-03-12T23:13:12.422Z,61.03
2024-03-12T23:15:39.991Z,50.80
2024-03-12T23:18:10.562Z,50.38
2024-03-12T23:20:40.312Z,58.03
2024-03-12T23:23:08.309Z,54.10
2024-03-12T23:25:35.727Z,58.53
2024-03-12T23:28:02.345Z,52.67
2024-03-12T23:30:28.916Z,49.88
2024-03-12T23:32:58.949Z,51.10
2024-03-12T23:35:27.857Z,57.53
2024-03-12T23:37:58.203Z,48.47
2024-03-12T23:40:25.938Z,53.45
2024-03-12T23:42:54.695Z,51.78
2024-03-12T23:45:21.993Z,56.75
2024-03-12T23:47:49.457Z,45.63
2024-03-12T23:50:16.226Z,51.72
2024-03-12T23:52:43.104Z,47.08
2024-03-12T23:55:10.881Z,49.92
2024-03-12T23:57:38.194Z,54.10
